Terminal Aerodrome Forecast
Issued by NWS

Home | Current Version | Previous Version | Text Only | Print | Product List | Glossary Off
Versions: 1 2 3 4 5 6 7 8 9 10 11 12 13 14 15 16 17

697
FTUS43 KABR 211120
TAFATY
TAF
KATY 211120Z 2112/2212 33027G33KT P6SM FEW025
     FM211800 33019G28KT P6SM FEW250
     FM212200 32013KT P6SM FEW250
     FM220000 31008KT P6SM FEW250
     FM220400 29004KT P6SM FEW250
     FM220800 23004KT P6SM FEW250=

USA.gov is the U.S. government's official web portal to all federal, state and local government web resources and services.